createdAt,value
2018-06-18T00:01:52.840Z,86.40
2018-06-18T00:04:20.397Z,85.90
2018-06-18T00:06:48.013Z,86.00
2018-06-18T00:09:15.574Z,86.50
2018-06-18T00:11:43.772Z,86.60
2018-06-18T00:14:12.061Z,86.40
2018-06-18T00:16:39.617Z,86.30
2018-06-18T00:19:07.318Z,86.40
2018-06-18T00:21:34.858Z,87.00
2018-06-18T00:24:02.633Z,86.60
2018-06-18T00:26:30.216Z,86.50
2018-06-18T00:28:58.270Z,86.50
2018-06-18T00:31:26.206Z,86.70
2018-06-18T00:33:53.770Z,86.80
2018-06-18T00:36:21.340Z,87.20
2018-06-18T00:38:49.317Z,87.50
2018-06-18T00:41:16.908Z,88.20
2018-06-18T00:43:44.479Z,88.30
2018-06-18T00:46:12.077Z,88.10
2018-06-18T00:48:39.618Z,88.30
2018-06-18T00:51:07.408Z,87.50
2018-06-18T00:53:34.942Z,87.10
2018-06-18T00:56:10.584Z,87.20
2018-06-18T00:58:38.425Z,87.50
2018-06-18T01:01:06.074Z,86.90
2018-06-18T01:03:33.646Z,87.00
2018-06-18T01:06:01.525Z,87.10
2018-06-18T01:08:29.092Z,87.10
2018-06-18T01:10:56.914Z,87.40
2018-06-18T01:13:24.477Z,87.20
2018-06-18T01:15:52.076Z,87.50
2018-06-18T01:18:19.657Z,87.20
2018-06-18T01:20:47.209Z,87.30
2018-06-18T01:25:38.172Z,87.60
2018-06-18T01:28:06.101Z,87.50
2018-06-18T01:30:33.901Z,87.20
2018-06-18T01:33:01.461Z,86.90
2018-06-18T01:35:29.086Z,87.10
2018-06-18T01:37:56.757Z,87.00
2018-06-18T01:40:24.829Z,86.60
2018-06-18T01:42:52.377Z,86.90
2018-06-18T01:45:20.201Z,87.00
2018-06-18T01:47:47.756Z,86.90
2018-06-18T01:50:15.291Z,87.40
2018-06-18T01:52:43.061Z,87.00
2018-06-18T01:55:10.597Z,87.50
2018-06-18T01:57:38.169Z,87.80
2018-06-18T02:00:05.742Z,88.30
2018-06-18T02:02:33.339Z,88.40
2018-06-18T02:05:00.856Z,88.80
2018-06-18T02:07:28.400Z,88.90
2018-06-18T02:09:55.958Z,89.40
2018-06-18T02:12:23.532Z,89.30
2018-06-18T02:14:51.061Z,89.50
2018-06-18T02:17:18.873Z,89.40
2018-06-18T02:19:46.404Z,89.50
2018-06-18T02:22:14.213Z,89.50
2018-06-18T02:24:41.824Z,89.80
2018-06-18T02:27:15.062Z,89.50
2018-06-18T02:29:48.053Z,89.70
2018-06-18T02:32:21.229Z,89.60
2018-06-18T02:34:54.380Z,88.90
2018-06-18T02:37:27.454Z,88.90
2018-06-18T02:40:00.768Z,89.00
2018-06-18T02:42:28.328Z,88.90
2018-06-18T02:44:55.933Z,88.90
2018-06-18T02:47:23.510Z,88.50
2018-06-18T02:49:51.081Z,88.00
2018-06-18T02:52:18.664Z,88.40
2018-06-18T02:54:46.225Z,88.60
2018-06-18T02:57:14.693Z,88.70
2018-06-18T02:59:42.253Z,88.70
2018-06-18T03:02:09.825Z,89.00
2018-06-18T03:04:37.365Z,89.00
2018-06-18T03:07:04.926Z,88.90
2018-06-18T03:09:32.505Z,88.90
2018-06-18T03:12:00.074Z,89.00
2018-06-18T03:14:27.621Z,88.80
2018-06-18T03:16:55.205Z,88.90
2018-06-18T03:19:28.387Z,89.10
2018-06-18T03:22:01.657Z,89.20
2018-06-18T03:24:34.750Z,89.00
2018-06-18T03:27:07.992Z,90.00
2018-06-18T03:29:36.538Z,89.70
2018-06-18T03:32:09.250Z,89.70
2018-06-18T03:34:36.809Z,90.00
2018-06-18T03:37:06.736Z,90.00
2018-06-18T03:39:34.321Z,90.00
2018-06-18T03:42:02.916Z,89.70
2018-06-18T03:45:49.650Z,90.00
2018-06-18T03:48:17.261Z,90.00
2018-06-18T03:50:44.814Z,89.50
2018-06-18T03:53:12.577Z,89.70
2018-06-18T03:55:46.631Z,89.80
2018-06-18T03:58:14.341Z,90.00
2018-06-18T04:03:01.940Z,90.00
2018-06-18T04:05:35.350Z,89.60
2018-06-18T04:08:06.265Z,89.60
2018-06-18T04:10:40.349Z,88.90
2018-06-18T04:13:08.485Z,88.40
2018-06-18T04:15:36.069Z,87.10
2018-06-18T04:18:04.581Z,86.60
2018-06-18T04:20:37.344Z,86.50
2018-06-18T04:23:05.065Z,86.50
2018-06-18T04:25:32.695Z,86.30
2018-06-18T04:28:00.285Z,84.90
2018-06-18T04:30:27.889Z,85.20
2018-06-18T04:32:55.471Z,85.20
2018-06-18T04:35:23.036Z,84.60
2018-06-18T04:37:50.710Z,84.40
2018-06-18T04:40:18.233Z,84.60
2018-06-18T04:42:51.692Z,84.40
2018-06-18T04:45:25.621Z,84.40
2018-06-18T04:47:59.128Z,83.90
2018-06-18T04:50:32.377Z,84.40
2018-06-18T04:52:59.923Z,84.60
2018-06-18T04:55:27.494Z,84.30
2018-06-18T04:57:55.378Z,84.10
2018-06-18T05:00:31.819Z,83.00
2018-06-18T05:02:59.367Z,82.90
2018-06-18T05:05:27.090Z,83.30
2018-06-18T05:08:02.410Z,83.50
2018-06-18T05:10:30.035Z,83.30
2018-06-18T05:12:57.749Z,83.00
2018-06-18T05:15:32.847Z,82.20
2018-06-18T05:18:01.924Z,82.20
2018-06-18T05:20:29.772Z,82.90
2018-06-18T05:22:57.297Z,83.20
2018-06-18T05:25:25.054Z,83.10
2018-06-18T05:27:52.600Z,83.20
2018-06-18T05:30:23.862Z,83.70
2018-06-18T05:32:51.481Z,83.80
2018-06-18T05:35:19.093Z,84.20
2018-06-18T05:37:49.570Z,84.90
2018-06-18T05:40:17.293Z,84.80
2018-06-18T05:42:44.845Z,85.10
2018-06-18T05:45:12.546Z,86.30
2018-06-18T05:47:41.410Z,86.80
2018-06-18T05:50:09.000Z,85.80
2018-06-18T05:52:36.621Z,85.60
2018-06-18T05:55:04.221Z,85.50
2018-06-18T05:57:32.997Z,85.80
2018-06-18T06:00:00.570Z,85.20
2018-06-18T06:02:28.178Z,85.20
2018-06-18T06:04:55.750Z,85.50
2018-06-18T06:07:23.316Z,85.40
2018-06-18T06:09:50.889Z,83.20
2018-06-18T06:12:18.446Z,82.70
2018-06-18T06:14:46.442Z,81.90
2018-06-18T06:17:14.098Z,81.40
2018-06-18T06:19:41.625Z,82.40
2018-06-18T06:22:09.181Z,80.70
2018-06-18T06:24:36.739Z,80.60
2018-06-18T06:27:04.473Z,80.20
2018-06-18T06:29:32.044Z,79.70
2018-06-18T06:31:59.560Z,78.50
2018-06-18T06:34:27.329Z,78.00
2018-06-18T06:36:54.889Z,78.80
2018-06-18T06:39:22.493Z,79.60
2018-06-18T06:41:55.033Z,79.50
2018-06-18T06:44:22.568Z,78.70
2018-06-18T06:46:50.118Z,79.20
2018-06-18T06:49:17.692Z,78.90
2018-06-18T06:51:45.496Z,79.90
2018-06-18T06:54:13.045Z,79.70
2018-06-18T06:56:40.579Z,79.80
2018-06-18T06:59:08.100Z,80.30
2018-06-18T07:01:35.862Z,80.00
2018-06-18T07:04:03.421Z,81.30
2018-06-18T07:06:30.989Z,82.50
2018-06-18T07:08:58.501Z,80.90
2018-06-18T07:11:26.067Z,80.10
2018-06-18T07:13:53.630Z,79.90
2018-06-18T07:16:21.186Z,79.60
2018-06-18T07:18:48.767Z,79.90
2018-06-18T07:21:16.565Z,79.80
2018-06-18T07:23:44.101Z,80.30
2018-06-18T07:26:11.651Z,80.30
2018-06-18T07:28:39.182Z,80.40
2018-06-18T07:31:06.740Z,80.20
2018-06-18T07:33:34.294Z,79.10
2018-06-18T07:36:01.882Z,79.40
2018-06-18T07:38:29.569Z,78.40
2018-06-18T07:40:57.110Z,79.80
2018-06-18T07:43:24.642Z,79.60
2018-06-18T07:45:52.190Z,79.70
2018-06-18T07:48:19.727Z,78.50
2018-06-18T07:50:47.263Z,79.70
2018-06-18T07:53:14.865Z,79.70
2018-06-18T07:55:42.401Z,79.40
2018-06-18T07:58:09.955Z,79.00
2018-06-18T08:00:37.523Z,78.00
2018-06-18T08:03:05.270Z,77.40
2018-06-18T08:05:32.988Z,77.20
2018-06-18T08:08:00.541Z,77.40
2018-06-18T08:10:28.082Z,75.50
2018-06-18T08:12:55.636Z,75.70
2018-06-18T08:15:23.163Z,75.70
2018-06-18T08:17:50.726Z,75.90
2018-06-18T08:20:18.361Z,75.20
2018-06-18T08:22:46.289Z,75.60
2018-06-18T08:25:13.817Z,75.10
2018-06-18T08:27:41.414Z,74.60
2018-06-18T08:30:09.826Z,73.50
2018-06-18T08:32:37.444Z,73.10
2018-06-18T08:35:05.195Z,73.90
2018-06-18T08:37:33.170Z,73.80
2018-06-18T08:40:00.716Z,72.50
2018-06-18T08:42:28.360Z,71.70
2018-06-18T08:44:55.934Z,73.00
2018-06-18T08:47:23.877Z,72.40
2018-06-18T08:49:57.226Z,71.80
2018-06-18T08:52:30.549Z,70.70
2018-06-18T08:55:03.718Z,71.40
2018-06-18T08:57:36.910Z,71.90
2018-06-18T09:00:10.186Z,72.20
2018-06-18T09:02:42.363Z,72.70
2018-06-18T09:05:11.629Z,73.30
2018-06-18T09:07:45.624Z,72.60
2018-06-18T09:10:13.526Z,71.80
2018-06-18T09:12:41.083Z,71.00
2018-06-18T09:15:08.650Z,71.20
2018-06-18T09:17:37.386Z,72.10
2018-06-18T09:20:05.595Z,73.00
2018-06-18T09:22:33.180Z,71.50
2018-06-18T09:25:01.262Z,72.60
2018-06-18T09:27:28.841Z,72.60
2018-06-18T09:30:02.026Z,74.40
2018-06-18T09:32:29.728Z,72.90
2018-06-18T09:34:57.141Z,72.90
2018-06-18T09:37:24.682Z,72.50
2018-06-18T09:39:52.250Z,73.00
2018-06-18T09:42:19.773Z,71.10
2018-06-18T09:44:47.560Z,70.80
2018-06-18T09:47:15.147Z,70.70
2018-06-18T09:49:48.393Z,70.50
2018-06-18T09:52:21.533Z,69.30
2018-06-18T09:54:55.041Z,67.90
2018-06-18T09:57:28.129Z,69.00
2018-06-18T10:00:13.874Z,69.00
2018-06-18T10:02:41.541Z,70.80
2018-06-18T10:05:09.481Z,72.20
2018-06-18T10:07:37.305Z,71.70
2018-06-18T10:10:04.857Z,70.80
2018-06-18T10:12:32.421Z,70.50
2018-06-18T10:14:59.993Z,69.50
2018-06-18T10:17:27.524Z,69.30
2018-06-18T10:19:55.114Z,69.90
2018-06-18T10:22:22.649Z,65.30
2018-06-18T10:24:50.347Z,67.20
2018-06-18T10:27:18.027Z,69.00
2018-06-18T10:29:45.837Z,64.40
2018-06-18T10:32:18.841Z,66.30
2018-06-18T10:34:52.053Z,65.10
2018-06-18T10:37:25.210Z,65.00
2018-06-18T10:39:58.470Z,68.00
2018-06-18T10:42:32.793Z,65.60
2018-06-18T10:45:01.218Z,64.80
2018-06-18T10:47:28.768Z,64.80
2018-06-18T10:49:56.474Z,64.40
2018-06-18T10:52:24.001Z,65.00
2018-06-18T10:54:51.587Z,65.70
2018-06-18T10:57:19.310Z,66.70
2018-06-18T10:59:46.919Z,66.90
2018-06-18T11:02:14.463Z,66.50
2018-06-18T11:04:47.606Z,67.50
2018-06-18T11:07:15.130Z,68.10
2018-06-18T11:09:42.721Z,69.00
2018-06-18T11:12:10.257Z,69.00
2018-06-18T11:14:37.830Z,69.90
2018-06-18T11:17:11.379Z,70.30
2018-06-18T11:19:44.276Z,70.10
2018-06-18T11:22:12.258Z,70.40
2018-06-18T11:24:46.184Z,70.60
2018-06-18T11:27:14.177Z,70.70
2018-06-18T11:29:41.851Z,69.80
2018-06-18T11:32:09.504Z,68.90
2018-06-18T11:34:37.004Z,69.80
2018-06-18T11:37:04.558Z,70.60
2018-06-18T11:39:32.117Z,70.00
2018-06-18T11:41:59.669Z,69.50
2018-06-18T11:44:27.201Z,68.60
2018-06-18T11:46:54.986Z,70.50
2018-06-18T11:49:22.606Z,68.90
2018-06-18T11:51:50.281Z,67.70
2018-06-18T11:54:17.865Z,68.30
2018-06-18T11:56:45.414Z,68.00
2018-06-18T11:59:18.528Z,69.10
2018-06-18T12:01:51.820Z,69.20
2018-06-18T12:04:25.173Z,68.30
2018-06-18T12:06:58.562Z,69.60
2018-06-18T12:09:31.521Z,69.50
2018-06-18T12:11:59.066Z,69.60
2018-06-18T12:14:27.026Z,69.70
2018-06-18T12:16:54.599Z,69.50
2018-06-18T12:19:22.128Z,69.20
2018-06-18T12:24:17.161Z,67.30
2018-06-18T12:26:44.945Z,67.90
2018-06-18T12:29:12.521Z,68.00
2018-06-18T12:31:40.253Z,67.20
2018-06-18T12:34:07.845Z,67.80
2018-06-18T12:36:35.407Z,67.00
2018-06-18T12:39:05.321Z,68.70
2018-06-18T12:41:32.899Z,66.60
2018-06-18T12:44:00.453Z,67.60
2018-06-18T12:46:33.602Z,66.40
2018-06-18T12:49:06.806Z,66.30
2018-06-18T12:51:40.032Z,65.10
2018-06-18T12:54:13.340Z,62.10
2018-06-18T12:56:46.837Z,62.60
2018-06-18T12:59:14.621Z,63.50
2018-06-18T13:01:46.824Z,62.80
2018-06-18T13:04:14.999Z,62.40
2018-06-18T13:06:42.557Z,64.40
2018-06-18T13:09:10.082Z,65.30
2018-06-18T13:11:37.792Z,65.60
2018-06-18T13:14:05.729Z,66.10
2018-06-18T13:16:33.306Z,67.70
2018-06-18T13:19:00.946Z,67.50
2018-06-18T13:21:28.489Z,67.70
2018-06-18T13:23:56.131Z,68.30
2018-06-18T13:26:23.666Z,68.40
2018-06-18T13:28:51.257Z,68.90
2018-06-18T13:31:18.805Z,69.50
2018-06-18T13:33:46.527Z,69.70
2018-06-18T13:36:15.082Z,67.70
2018-06-18T13:38:48.461Z,68.30
2018-06-18T13:41:21.556Z,69.70
2018-06-18T13:43:54.754Z,70.40
2018-06-18T13:46:27.878Z,71.00
2018-06-18T13:48:56.505Z,72.70
2018-06-18T13:51:25.569Z,73.70
2018-06-18T13:53:53.908Z,75.60
2018-06-18T13:56:21.514Z,77.80
2018-06-18T13:58:49.089Z,76.10
2018-06-18T14:01:16.647Z,77.50
2018-06-18T14:03:44.198Z,77.50
2018-06-18T14:06:12.288Z,78.10
2018-06-18T14:08:40.074Z,78.10
2018-06-18T14:11:07.669Z,77.40
2018-06-18T14:13:35.409Z,77.70
2018-06-18T14:16:03.282Z,76.20
2018-06-18T14:18:31.014Z,76.80
2018-06-18T14:20:58.578Z,76.70
2018-06-18T14:23:26.121Z,76.10
2018-06-18T14:25:53.787Z,76.00
2018-06-18T14:28:21.467Z,76.10
2018-06-18T14:30:54.486Z,75.80
2018-06-18T14:33:28.349Z,75.30
2018-06-18T14:36:01.589Z,74.80
2018-06-18T14:38:34.814Z,74.00
2018-06-18T14:41:02.415Z,72.90
2018-06-18T14:43:30.574Z,72.00
2018-06-18T14:45:58.228Z,72.50
2018-06-18T14:48:26.126Z,72.20
2018-06-18T14:50:53.652Z,71.30
2018-06-18T14:53:21.403Z,70.10
2018-06-18T14:58:19.059Z,67.20
2018-06-18T15:00:46.626Z,68.30
2018-06-18T15:03:14.281Z,65.90
2018-06-18T15:08:09.817Z,64.70
2018-06-18T15:10:43.122Z,63.70
2018-06-18T15:13:12.481Z,63.70
2018-06-18T15:15:45.759Z,64.00
2018-06-18T15:18:13.229Z,64.10
2018-06-18T15:20:40.853Z,65.20
2018-06-18T15:23:08.897Z,67.20
2018-06-18T15:25:40.219Z,66.50
2018-06-18T15:28:07.853Z,68.90
2018-06-18T15:30:35.413Z,68.30
2018-06-18T15:33:03.126Z,69.60
2018-06-18T15:35:31.613Z,68.20
2018-06-18T15:37:59.161Z,68.70
2018-06-18T15:40:26.925Z,69.70
2018-06-18T15:42:54.753Z,69.40
2018-06-18T15:45:22.337Z,70.60
2018-06-18T15:47:50.080Z,69.90
2018-06-18T15:50:17.605Z,69.60
2018-06-18T15:52:45.172Z,69.20
2018-06-18T15:55:12.730Z,69.40
2018-06-18T15:57:40.260Z,69.50
2018-06-18T16:00:07.850Z,69.60
2018-06-18T16:02:35.460Z,69.50
2018-06-18T16:05:03.289Z,70.00
2018-06-18T16:07:30.848Z,69.20
2018-06-18T16:09:58.536Z,68.60
2018-06-18T16:12:26.089Z,69.70
2018-06-18T16:14:53.793Z,70.00
2018-06-18T16:17:21.398Z,70.00
2018-06-18T16:19:48.969Z,69.30
2018-06-18T16:22:16.484Z,69.30
2018-06-18T16:24:44.262Z,69.00
2018-06-18T16:27:11.847Z,68.10
2018-06-18T16:29:39.421Z,68.80
2018-06-18T16:34:34.501Z,67.80
2018-06-18T16:37:02.078Z,67.20
2018-06-18T16:39:29.690Z,66.60
2018-06-18T16:41:57.275Z,67.10
2018-06-18T16:44:26.150Z,67.80
2018-06-18T16:46:54.782Z,68.00
2018-06-18T16:49:22.313Z,68.10
2018-06-18T16:51:49.856Z,67.50
2018-06-18T16:54:17.410Z,66.80
2018-06-18T16:56:45.057Z,66.10
2018-06-18T16:59:12.616Z,65.80
2018-06-18T17:01:40.582Z,66.00
2018-06-18T17:04:08.121Z,68.20
2018-06-18T17:06:36.327Z,68.40
2018-06-18T17:09:07.025Z,67.00
2018-06-18T17:11:34.514Z,67.80
2018-06-18T17:14:02.265Z,68.30
2018-06-18T17:16:29.802Z,68.80
2018-06-18T17:18:57.392Z,69.90
2018-06-18T17:21:24.945Z,71.00
2018-06-18T17:23:52.485Z,72.50
2018-06-18T17:26:20.021Z,72.60
2018-06-18T17:28:47.593Z,72.80
2018-06-18T17:31:15.993Z,73.10
2018-06-18T17:33:43.581Z,73.00
2018-06-18T17:36:11.576Z,73.00
2018-06-18T17:38:39.131Z,73.20
2018-06-18T17:43:34.149Z,72.30
2018-06-18T17:46:01.729Z,71.80
2018-06-18T17:48:29.701Z,71.60
2018-06-18T17:50:57.413Z,71.30
2018-06-18T17:53:25.001Z,69.80
2018-06-18T17:55:52.545Z,69.80
2018-06-18T17:58:20.360Z,68.00
2018-06-18T18:00:48.255Z,68.00
2018-06-18T18:03:16.270Z,66.40
2018-06-18T18:05:43.822Z,64.10
2018-06-18T18:08:11.377Z,62.00
2018-06-18T18:10:39.093Z,62.60
2018-06-18T18:13:06.664Z,63.60
2018-06-18T18:15:34.209Z,65.20
2018-06-18T18:18:01.804Z,67.10
2018-06-18T18:20:29.809Z,66.40
2018-06-18T18:22:57.832Z,67.20
2018-06-18T18:25:25.377Z,68.80
2018-06-18T18:27:52.917Z,69.40
2018-06-18T18:30:20.499Z,70.50
2018-06-18T18:32:48.053Z,71.70
2018-06-18T18:35:15.626Z,72.30
2018-06-18T18:37:43.173Z,72.60
2018-06-18T18:40:10.737Z,73.50
2018-06-18T18:47:33.245Z,76.00
2018-06-18T18:50:00.805Z,76.40
2018-06-18T18:52:28.983Z,76.70
2018-06-18T18:55:33.919Z,77.10
2018-06-18T18:58:14.536Z,77.00
2018-06-18T19:00:42.950Z,77.80
2018-06-18T19:03:10.553Z,78.70
2018-06-18T19:05:38.168Z,79.10
2018-06-18T19:08:06.126Z,79.20
2018-06-18T19:10:35.601Z,80.50
2018-06-18T19:13:06.210Z,80.30
2018-06-18T19:15:33.798Z,80.70
2018-06-18T19:18:01.365Z,81.20
2018-06-18T19:20:32.253Z,82.10
2018-06-18T19:22:59.874Z,82.00
2018-06-18T19:25:27.462Z,82.80
2018-06-18T19:27:54.983Z,83.40
2018-06-18T19:30:22.613Z,83.30
2018-06-18T19:32:51.506Z,84.40
2018-06-18T19:35:19.065Z,84.10
2018-06-18T19:37:46.614Z,84.10
2018-06-18T19:40:14.158Z,84.90
2018-06-18T19:42:41.702Z,86.00
2018-06-18T19:45:10.849Z,86.00
2018-06-18T19:47:42.657Z,86.60
2018-06-18T19:50:10.362Z,86.00
2018-06-18T19:52:38.125Z,86.90
2018-06-18T19:55:11.093Z,86.10
2018-06-18T19:57:38.922Z,86.50
2018-06-18T20:00:06.505Z,87.50
2018-06-18T20:02:34.098Z,86.90
2018-06-18T20:05:07.548Z,87.20
2018-06-18T20:07:35.097Z,87.40
2018-06-18T20:10:02.795Z,88.00
2018-06-18T20:12:30.329Z,87.90
2018-06-18T20:14:57.885Z,88.60
2018-06-18T20:17:25.718Z,88.10
2018-06-18T20:19:53.297Z,88.70
2018-06-18T20:24:49.741Z,88.10
2018-06-18T20:27:17.325Z,88.60
2018-06-18T20:29:44.862Z,88.80
2018-06-18T20:32:12.651Z,88.50
2018-06-18T20:34:41.426Z,88.90
2018-06-18T20:37:09.005Z,89.00
2018-06-18T20:39:36.598Z,89.20
2018-06-18T20:42:04.537Z,89.20
2018-06-18T20:44:32.061Z,89.60
2018-06-18T20:47:00.558Z,89.70
2018-06-18T20:49:28.240Z,89.70
2018-06-18T20:51:55.792Z,89.60
2018-06-18T20:54:23.330Z,89.40
2018-06-18T20:56:50.957Z,89.50
2018-06-18T20:59:18.501Z,89.50
2018-06-18T21:01:46.069Z,90.00
2018-06-18T21:04:13.749Z,89.70
2018-06-18T21:06:41.297Z,89.50
2018-06-18T21:09:10.553Z,89.50
2018-06-18T21:11:38.482Z,90.00
2018-06-18T21:14:07.206Z,89.90
2018-06-18T21:16:34.972Z,89.80
2018-06-18T21:19:02.787Z,90.00
2018-06-18T21:21:30.566Z,90.00
2018-06-18T21:23:58.117Z,90.10
2018-06-18T21:26:25.682Z,90.00
2018-06-18T21:28:53.281Z,90.00
2018-06-18T21:31:20.844Z,90.10
2018-06-18T21:33:48.389Z,90.30
2018-06-18T21:36:15.945Z,90.30
2018-06-18T21:38:43.499Z,90.30
2018-06-18T21:41:11.029Z,90.40
2018-06-18T21:43:38.554Z,90.40
2018-06-18T21:46:06.515Z,90.40
2018-06-18T21:48:34.032Z,90.60
2018-06-18T21:51:01.641Z,90.70
2018-06-18T21:53:29.201Z,90.40
2018-06-18T21:55:56.984Z,90.40
2018-06-18T21:58:24.549Z,90.50
2018-06-18T22:00:52.838Z,90.40
2018-06-18T22:03:20.445Z,90.30
2018-06-18T22:05:48.685Z,90.60
2018-06-18T22:08:18.049Z,90.50
2018-06-18T22:10:45.655Z,90.70
2018-06-18T22:13:14.213Z,90.70
2018-06-18T22:15:41.993Z,91.10
2018-06-18T22:18:09.653Z,91.10
2018-06-18T22:20:37.229Z,91.30
2018-06-18T22:23:04.864Z,91.30
2018-06-18T22:25:32.455Z,91.50
2018-06-18T22:28:00.682Z,91.80
2018-06-18T22:30:28.252Z,92.00
2018-06-18T22:32:55.842Z,92.10
2018-06-18T22:35:23.526Z,92.10
2018-06-18T22:37:51.117Z,92.10
2018-06-18T22:40:18.674Z,92.10
2018-06-18T22:42:46.492Z,92.10
2018-06-18T22:45:14.050Z,92.10
2018-06-18T22:47:42.309Z,92.20
2018-06-18T22:50:09.881Z,92.00
2018-06-18T22:52:37.564Z,91.90
2018-06-18T22:55:05.188Z,92.20
2018-06-18T22:57:32.791Z,92.20
2018-06-18T23:00:00.397Z,91.90
2018-06-18T23:02:29.820Z,92.00
2018-06-18T23:04:57.437Z,92.30
2018-06-18T23:09:52.522Z,92.10
2018-06-18T23:12:21.993Z,92.20
2018-06-18T23:14:49.578Z,92.30
2018-06-18T23:17:17.226Z,92.50
2018-06-18T23:19:44.814Z,92.70
2018-06-18T23:22:12.393Z,92.70
2018-06-18T23:24:39.959Z,92.90
2018-06-18T23:27:08.207Z,92.90
2018-06-18T23:29:35.729Z,93.00
2018-06-18T23:32:03.601Z,93.00
2018-06-18T23:34:31.236Z,93.10
2018-06-18T23:36:58.769Z,93.30
2018-06-18T23:39:26.378Z,93.00
2018-06-18T23:44:22.389Z,92.50
2018-06-18T23:46:50.014Z,92.60
2018-06-18T23:49:17.836Z,92.60
2018-06-18T23:51:45.406Z,92.60
2018-06-18T23:54:13.041Z,93.10
2018-06-18T23:56:40.773Z,93.20
2018-06-18T23:59:09.048Z,93.40
